sensor_id;sensor_type;location;lat;lon;timestamp;pressure;altitude;pressure_sealevel;temperature;humidity
39243;BME280;29823;47.404;8.566;2022-08-24T00:00:41;96559.81;;;16.44;100.00
39243;BME280;29823;47.404;8.566;2022-08-24T00:03:10;96557.94;;;16.50;100.00
39243;BME280;29823;47.404;8.566;2022-08-24T00:05:38;96554.19;;;16.71;100.00
39243;BME280;29823;47.404;8.566;2022-08-24T00:08:06;96558.50;;;16.67;100.00
39243;BME280;29823;47.404;8.566;2022-08-24T00:10:34;96556.34;;;16.64;100.00
39243;BME280;29823;47.404;8.566;2022-08-24T00:13:02;96556.34;;;16.64;100.00
39243;BME280;29823;47.404;8.566;2022-08-24T00:15:30;96558.22;;;16.78;100.00
39243;BME280;29823;47.404;8.566;2022-08-24T00:17:58;96559.56;;;16.56;100.00
39243;BME280;29823;47.404;8.566;2022-08-24T00:20:27;96562.00;;;16.57;100.00
39243;BME280;29823;47.404;8.566;2022-08-24T00:22:55;96564.19;;;16.65;100.00
39243;BME280;29823;47.404;8.566;2022-08-24T00:25:23;96559.84;;;16.64;100.00
39243;BME280;29823;47.404;8.566;2022-08-24T00:27:51;96550.66;;;16.60;100.00
39243;BME280;29823;47.404;8.566;2022-08-24T00:30:20;96551.75;;;16.54;100.00
39243;BME280;29823;47.404;8.566;2022-08-24T00:32:49;96554.63;;;16.33;100.00
39243;BME280;29823;47.404;8.566;2022-08-24T00:35:17;96555.50;;;16.48;100.00
39243;BME280;29823;47.404;8.566;2022-08-24T00:37:47;96552.25;;;16.51;100.00
39243;BME280;29823;47.404;8.566;2022-08-24T00:40:20;96555.50;;;16.48;100.00
39243;BME280;29823;47.404;8.566;2022-08-24T00:42:48;96548.75;;;16.46;100.00
39243;BME280;29823;47.404;8.566;2022-08-24T00:45:17;96533.09;;;16.53;100.00
39243;BME280;29823;47.404;8.566;2022-08-24T00:47:49;96554.44;;;16.49;100.00
39243;BME280;29823;47.404;8.566;2022-08-24T00:50:19;96559.22;;;16.32;100.00
39243;BME280;29823;47.404;8.566;2022-08-24T00:52:52;96557.56;;;16.21;100.00
39243;BME280;29823;47.404;8.566;2022-08-24T00:55:26;96552.72;;;16.28;100.00
39243;BME280;29823;47.404;8.566;2022-08-24T00:57:58;96556.53;;;16.32;100.00
39243;BME280;29823;47.404;8.566;2022-08-24T01:00:31;96553.59;;;16.39;100.00
39243;BME280;29823;47.404;8.566;2022-08-24T01:03:02;96552.97;;;16.22;100.00
39243;BME280;29823;47.404;8.566;2022-08-24T01:05:33;96547.28;;;16.18;100.00
39243;BME280;29823;47.404;8.566;2022-08-24T01:08:06;96542.72;;;16.19;100.00
39243;BME280;29823;47.404;8.566;2022-08-24T01:10:36;96547.03;;;16.20;100.00
39243;BME280;29823;47.404;8.566;2022-08-24T01:13:08;96547.31;;;16.28;100.00
39243;BME280;29823;47.404;8.566;2022-08-24T01:15:40;96551.84;;;16.08;100.00
39243;BME280;29823;47.404;8.566;2022-08-24T01:18:13;96538.88;;;16.00;100.00
39243;BME280;29823;47.404;8.566;2022-08-24T01:21:04;96539.84;;;15.79;100.00
39243;BME280;29823;47.404;8.566;2022-08-24T01:23:38;96545.59;;;15.87;100.00
39243;BME280;29823;47.404;8.566;2022-08-24T01:26:09;96539.34;;;15.82;100.00
39243;BME280;29823;47.404;8.566;2022-08-24T01:28:41;96543.25;;;15.59;100.00
39243;BME280;29823;47.404;8.566;2022-08-24T01:31:10;96530.81;;;15.48;100.00
39243;BME280;29823;47.404;8.566;2022-08-24T01:33:39;96539.56;;;15.75;100.00
39243;BME280;29823;47.404;8.566;2022-08-24T01:36:17;96536.22;;;15.53;100.00
39243;BME280;29823;47.404;8.566;2022-08-24T01:41:40;96541.75;;;15.32;100.00
39243;BME280;29823;47.404;8.566;2022-08-24T01:44:08;96542.00;;;15.30;100.00
39243;BME280;29823;47.404;8.566;2022-08-24T01:46:36;96532.75;;;15.53;100.00
39243;BME280;29823;47.404;8.566;2022-08-24T01:49:04;96545.28;;;15.37;100.00
39243;BME280;29823;47.404;8.566;2022-08-24T01:51:32;96539.69;;;15.44;100.00
39243;BME280;29823;47.404;8.566;2022-08-24T01:54:02;96536.50;;;15.47;100.00
39243;BME280;29823;47.404;8.566;2022-08-24T01:56:30;96536.31;;;15.27;100.00
39243;BME280;29823;47.404;8.566;2022-08-24T01:58:59;96540.47;;;15.39;100.00
39243;BME280;29823;47.404;8.566;2022-08-24T02:01:29;96542.19;;;15.19;100.00
39243;BME280;29823;47.404;8.566;2022-08-24T02:04:00;96543.34;;;15.28;100.00
39243;BME280;29823;47.404;8.566;2022-08-24T02:06:29;96541.53;;;15.38;100.00
39243;BME280;29823;47.404;8.566;2022-08-24T02:08:58;96539.78;;;15.17;100.00
39243;BME280;29823;47.404;8.566;2022-08-24T02:11:27;96542.94;;;15.09;100.00
39243;BME280;29823;47.404;8.566;2022-08-24T02:13:55;96549.50;;;15.23;100.00
39243;BME280;29823;47.404;8.566;2022-08-24T02:16:25;96545.09;;;15.07;100.00
39243;BME280;29823;47.404;8.566;2022-08-24T02:18:54;96547.00;;;15.12;100.00
39243;BME280;29823;47.404;8.566;2022-08-24T02:21:21;96546.91;;;15.02;100.00
39243;BME280;29823;47.404;8.566;2022-08-24T02:23:50;96547.34;;;14.89;100.00
39243;BME280;29823;47.404;8.566;2022-08-24T02:26:18;96553.41;;;15.06;100.00
39243;BME280;29823;47.404;8.566;2022-08-24T02:28:47;96552.88;;;15.09;100.00
39243;BME280;29823;47.404;8.566;2022-08-24T02:31:15;96553.13;;;15.02;100.00
39243;BME280;29823;47.404;8.566;2022-08-24T02:33:42;96553.28;;;14.91;100.00
39243;BME280;29823;47.404;8.566;2022-08-24T02:36:11;96549.38;;;15.08;100.00
39243;BME280;29823;47.404;8.566;2022-08-24T02:38:52;96548.84;;;15.11;100.00
39243;BME280;29823;47.404;8.566;2022-08-24T02:41:20;96556.34;;;15.04;100.00
39243;BME280;29823;47.404;8.566;2022-08-24T02:43:51;96554.53;;;15.10;100.00
39243;BME280;29823;47.404;8.566;2022-08-24T02:46:23;96550.78;;;15.16;100.00
39243;BME280;29823;47.404;8.566;2022-08-24T02:48:53;96548.34;;;15.14;100.00
39243;BME280;29823;47.404;8.566;2022-08-24T02:51:37;96553.78;;;15.19;100.00
39243;BME280;29823;47.404;8.566;2022-08-24T02:54:11;96555.44;;;15.25;100.00
39243;BME280;29823;47.404;8.566;2022-08-24T02:56:42;96554.34;;;15.26;100.00
39243;BME280;29823;47.404;8.566;2022-08-24T02:59:11;96552.69;;;15.20;100.00
39243;BME280;29823;47.404;8.566;2022-08-24T03:01:39;96551.00;;;15.09;100.00
39243;BME280;29823;47.404;8.566;2022-08-24T03:04:08;96520.16;;;14.85;100.00
39243;BME280;29823;47.404;8.566;2022-08-24T03:06:36;96550.81;;;14.84;100.00
39243;BME280;29823;47.404;8.566;2022-08-24T03:09:04;96555.03;;;15.07;100.00
39243;BME280;29823;47.404;8.566;2022-08-24T03:11:31;96551.41;;;14.91;100.00
39243;BME280;29823;47.404;8.566;2022-08-24T03:13:59;96544.97;;;14.92;100.00
39243;BME280;29823;47.404;8.566;2022-08-24T03:16:29;96551.50;;;15.01;100.00
39243;BME280;29823;47.404;8.566;2022-08-24T03:18:57;96547.03;;;14.80;100.00
39243;BME280;29823;47.404;8.566;2022-08-24T03:21:25;96546.78;;;14.87;100.00
39243;BME280;29823;47.404;8.566;2022-08-24T03:23:53;96543.13;;;14.66;100.00
39243;BME280;29823;47.404;8.566;2022-08-24T03:26:21;96555.06;;;14.49;100.00
39243;BME280;29823;47.404;8.566;2022-08-24T03:28:50;96547.38;;;14.62;100.00
39243;BME280;29823;47.404;8.566;2022-08-24T03:31:18;96543.59;;;14.58;100.00
39243;BME280;29823;47.404;8.566;2022-08-24T03:33:47;96548.41;;;14.56;100.00
39243;BME280;29823;47.404;8.566;2022-08-24T03:36:15;96537.69;;;14.61;100.00
39243;BME280;29823;47.404;8.566;2022-08-24T03:38:43;96550.41;;;14.71;100.00
39243;BME280;29823;47.404;8.566;2022-08-24T03:41:10;96537.44;;;14.63;100.00
39243;BME280;29823;47.404;8.566;2022-08-24T03:43:39;96555.41;;;14.57;100.00
39243;BME280;29823;47.404;8.566;2022-08-24T03:46:16;96555.34;;;14.47;100.00
39243;BME280;29823;47.404;8.566;2022-08-24T03:48:46;96538.13;;;14.48;100.00
39243;BME280;29823;47.404;8.566;2022-08-24T03:51:17;96532.06;;;14.63;100.00
39243;BME280;29823;47.404;8.566;2022-08-24T03:53:45;96552.84;;;14.72;100.00
39243;BME280;29823;47.404;8.566;2022-08-24T03:56:13;96557.94;;;14.69;100.00
39243;BME280;29823;47.404;8.566;2022-08-24T03:58:43;96541.94;;;14.52;100.00
39243;BME280;29823;47.404;8.566;2022-08-24T04:01:12;96556.94;;;14.48;100.00
39243;BME280;29823;47.404;8.566;2022-08-24T04:03:42;96548.84;;;14.43;100.00
39243;BME280;29823;47.404;8.566;2022-08-24T04:06:12;96552.41;;;14.54;100.00
39243;BME280;29823;47.404;8.566;2022-08-24T04:08:41;96548.13;;;14.26;100.00
39243;BME280;29823;47.404;8.566;2022-08-24T04:11:10;96552.59;;;14.42;100.00
39243;BME280;29823;47.404;8.566;2022-08-24T04:13:38;96548.22;;;14.15;100.00
39243;BME280;29823;47.404;8.566;2022-08-24T04:16:07;96555.19;;;14.32;100.00
39243;BME280;29823;47.404;8.566;2022-08-24T04:18:35;96546.31;;;14.10;100.00
39243;BME280;29823;47.404;8.566;2022-08-24T04:21:03;96557.75;;;14.22;100.00
39243;BME280;29823;47.404;8.566;2022-08-24T04:23:33;96555.56;;;13.98;100.00
39243;BME280;29823;47.404;8.566;2022-08-24T04:26:14;96550.84;;;14.10;100.00
39243;BME280;29823;47.404;8.566;2022-08-24T04:29:00;96558.72;;;14.16;100.00
39243;BME280;29823;47.404;8.566;2022-08-24T04:31:34;96555.44;;;14.09;100.00
39243;BME280;29823;47.404;8.566;2022-08-24T04:34:02;96560.75;;;14.26;100.00
39243;BME280;29823;47.404;8.566;2022-08-24T04:36:31;96553.91;;;14.40;100.00
39243;BME280;29823;47.404;8.566;2022-08-24T04:39:01;96562.72;;;14.35;100.00
39243;BME280;29823;47.404;8.566;2022-08-24T04:41:29;96562.75;;;14.14;100.00
39243;BME280;29823;47.404;8.566;2022-08-24T04:44:00;96559.06;;;14.20;100.00
39243;BME280;29823;47.404;8.566;2022-08-24T04:46:28;96568.59;;;14.11;100.00
39243;BME280;29823;47.404;8.566;2022-08-24T04:48:56;96565.56;;;14.24;100.00
39243;BME280;29823;47.404;8.566;2022-08-24T04:51:24;96565.19;;;14.15;100.00
39243;BME280;29823;47.404;8.566;2022-08-24T04:53:54;96567.34;;;14.18;100.00
39243;BME280;29823;47.404;8.566;2022-08-24T04:56:24;96572.72;;;14.18;100.00
39243;BME280;29823;47.404;8.566;2022-08-24T04:58:53;96573.66;;;14.24;100.00
39243;BME280;29823;47.404;8.566;2022-08-24T05:01:24;96575.63;;;14.33;100.00
39243;BME280;29823;47.404;8.566;2022-08-24T05:03:53;96581.56;;;14.35;100.00
39243;BME280;29823;47.404;8.566;2022-08-24T05:06:23;96579.06;;;14.55;100.00
39243;BME280;29823;47.404;8.566;2022-08-24T05:08:52;96577.84;;;14.68;100.00
39243;BME280;29823;47.404;8.566;2022-08-24T05:11:21;96577.84;;;14.68;100.00
39243;BME280;29823;47.404;8.566;2022-08-24T05:13:52;96579.81;;;14.77;100.00
39243;BME280;29823;47.404;8.566;2022-08-24T05:16:20;96586.88;;;14.83;100.00
39243;BME280;29823;47.404;8.566;2022-08-24T05:18:49;96581.91;;;15.02;100.00
39243;BME280;29823;47.404;8.566;2022-08-24T05:21:19;96582.38;;;15.25;100.00
39243;BME280;29823;47.404;8.566;2022-08-24T05:23:48;96581.94;;;15.38;100.00
39243;BME280;29823;47.404;8.566;2022-08-24T05:26:18;96586.88;;;15.46;100.00
39243;BME280;29823;47.404;8.566;2022-08-24T05:28:46;96586.88;;;15.46;100.00
39243;BME280;29823;47.404;8.566;2022-08-24T05:31:19;96582.19;;;15.78;100.00
39243;BME280;29823;47.404;8.566;2022-08-24T05:33:48;96578.78;;;15.98;100.00
39243;BME280;29823;47.404;8.566;2022-08-24T05:36:18;96583.63;;;15.91;100.00
39243;BME280;29823;47.404;8.566;2022-08-24T05:38:46;96586.53;;;15.84;100.00
39243;BME280;29823;47.404;8.566;2022-08-24T05:41:15;96589.28;;;15.94;100.00
39243;BME280;29823;47.404;8.566;2022-08-24T05:43:43;96590.94;;;16.00;100.00
39243;BME280;29823;47.404;8.566;2022-08-24T05:46:11;96598.28;;;16.20;100.00
39243;BME280;29823;47.404;8.566;2022-08-24T05:48:41;96595.84;;;16.13;100.00
39243;BME280;29823;47.404;8.566;2022-08-24T05:51:18;96594.56;;;16.36;100.00
39243;BME280;29823;47.404;8.566;2022-08-24T05:53:46;96581.59;;;16.23;100.00
39243;BME280;29823;47.404;8.566;2022-08-24T05:56:16;96598.72;;;16.53;100.00
39243;BME280;29823;47.404;8.566;2022-08-24T05:58:44;96605.22;;;16.77;100.00
39243;BME280;29823;47.404;8.566;2022-08-24T06:01:14;96598.78;;;16.98;100.00
39243;BME280;29823;47.404;8.566;2022-08-24T06:03:44;96600.13;;;17.16;100.00
39243;BME280;29823;47.404;8.566;2022-08-24T06:06:13;96596.63;;;17.25;100.00
39243;BME280;29823;47.404;8.566;2022-08-24T06:08:43;96596.88;;;17.24;100.00
39243;BME280;29823;47.404;8.566;2022-08-24T06:11:19;96593.94;;;17.60;100.00
39243;BME280;29823;47.404;8.566;2022-08-24T06:13:58;96600.69;;;17.58;100.00
39243;BME280;29823;47.404;8.566;2022-08-24T06:16:26;96597.13;;;17.72;100.00
39243;BME280;29823;47.404;8.566;2022-08-24T06:18:56;96605.19;;;17.97;100.00
39243;BME280;29823;47.404;8.566;2022-08-24T06:21:25;96596.69;;;18.29;100.00
39243;BME280;29823;47.404;8.566;2022-08-24T06:23:54;96605.59;;;18.34;100.00
39243;BME280;29823;47.404;8.566;2022-08-24T06:26:23;96604.78;;;18.44;100.00
39243;BME280;29823;47.404;8.566;2022-08-24T06:29:14;96590.59;;;18.62;100.00
39243;BME280;29823;47.404;8.566;2022-08-24T06:31:44;96600.09;;;19.03;100.00
39243;BME280;29823;47.404;8.566;2022-08-24T06:34:15;96608.00;;;18.94;100.00
39243;BME280;29823;47.404;8.566;2022-08-24T06:36:43;96610.63;;;19.04;100.00
39243;BME280;29823;47.404;8.566;2022-08-24T06:39:11;96616.06;;;18.99;100.00
39243;BME280;29823;47.404;8.566;2022-08-24T06:41:40;96621.50;;;19.38;100.00
39243;BME280;29823;47.404;8.566;2022-08-24T06:44:09;96609.16;;;19.55;100.00
39243;BME280;29823;47.404;8.566;2022-08-24T06:46:37;96611.72;;;19.42;100.00
39243;BME280;29823;47.404;8.566;2022-08-24T06:49:06;96612.06;;;19.92;100.00
39243;BME280;29823;47.404;8.566;2022-08-24T06:51:35;96604.06;;;20.29;100.00
39243;BME280;29823;47.404;8.566;2022-08-24T06:54:03;96605.34;;;20.55;99.76
39243;BME280;29823;47.404;8.566;2022-08-24T06:56:30;96605.44;;;20.69;97.31
39243;BME280;29823;47.404;8.566;2022-08-24T06:58:58;96609.63;;;20.61;99.96
39243;BME280;29823;47.404;8.566;2022-08-24T07:01:29;96609.81;;;20.88;94.63
39243;BME280;29823;47.404;8.566;2022-08-24T07:03:57;96603.91;;;20.81;96.02
39243;BME280;29823;47.404;8.566;2022-08-24T07:06:25;96599.66;;;21.12;89.96
39243;BME280;29823;47.404;8.566;2022-08-24T07:08:54;96608.56;;;21.68;87.93
39243;BME280;29823;47.404;8.566;2022-08-24T07:11:22;96611.09;;;21.78;84.34
39243;BME280;29823;47.404;8.566;2022-08-24T07:13:50;96611.81;;;21.70;85.32
39243;BME280;29823;47.404;8.566;2022-08-24T07:16:20;96607.50;;;21.83;88.60
39243;BME280;29823;47.404;8.566;2022-08-24T07:18:48;96613.78;;;22.24;82.36
39243;BME280;29823;47.404;8.566;2022-08-24T07:21:17;96610.94;;;22.02;82.37
39243;BME280;29823;47.404;8.566;2022-08-24T07:23:46;96613.97;;;22.27;77.89
39243;BME280;29823;47.404;8.566;2022-08-24T07:26:17;96612.56;;;22.43;78.05
39243;BME280;29823;47.404;8.566;2022-08-24T07:28:48;96612.47;;;22.08;78.67
39243;BME280;29823;47.404;8.566;2022-08-24T07:31:16;96616.28;;;22.07;80.94
39243;BME280;29823;47.404;8.566;2022-08-24T07:33:44;96616.94;;;22.44;77.80
39243;BME280;29823;47.404;8.566;2022-08-24T07:36:12;96618.88;;;23.06;73.07
39243;BME280;29823;47.404;8.566;2022-08-24T07:38:47;96617.91;;;22.75;77.02
39243;BME280;29823;47.404;8.566;2022-08-24T07:41:19;96615.66;;;23.04;70.83
39243;BME280;29823;47.404;8.566;2022-08-24T07:44:07;96621.56;;;22.57;74.31
39243;BME280;29823;47.404;8.566;2022-08-24T07:46:35;96611.91;;;23.00;73.34
39243;BME280;29823;47.404;8.566;2022-08-24T07:49:04;96618.03;;;23.41;67.14
39243;BME280;29823;47.404;8.566;2022-08-24T07:51:45;96618.81;;;23.55;69.40
39243;BME280;29823;47.404;8.566;2022-08-24T07:54:14;96614.56;;;23.71;67.30
39243;BME280;29823;47.404;8.566;2022-08-24T07:56:43;96618.78;;;23.99;66.73
39243;BME280;29823;47.404;8.566;2022-08-24T07:59:11;96619.28;;;24.01;62.17
39243;BME280;29823;47.404;8.566;2022-08-24T08:01:39;96619.72;;;24.25;61.11
39243;BME280;29823;47.404;8.566;2022-08-24T08:04:08;96618.88;;;24.55;60.97
39243;BME280;29823;47.404;8.566;2022-08-24T08:06:36;96612.00;;;24.58;59.16
39243;BME280;29823;47.404;8.566;2022-08-24T08:09:04;96621.69;;;24.72;57.28
39243;BME280;29823;47.404;8.566;2022-08-24T08:11:32;96618.16;;;24.89;54.09
39243;BME280;29823;47.404;8.566;2022-08-24T08:14:01;96613.25;;;25.50;53.10
39243;BME280;29823;47.404;8.566;2022-08-24T08:16:29;96614.19;;;25.03;55.29
39243;BME280;29823;47.404;8.566;2022-08-24T08:18:57;96616.91;;;25.03;55.94
39243;BME280;29823;47.404;8.566;2022-08-24T08:21:40;96608.69;;;24.95;55.44
39243;BME280;29823;47.404;8.566;2022-08-24T08:24:26;96622.72;;;25.19;53.23
39243;BME280;29823;47.404;8.566;2022-08-24T08:26:54;96631.13;;;25.31;53.23
39243;BME280;29823;47.404;8.566;2022-08-24T08:29:24;96622.72;;;25.02;56.26
39243;BME280;29823;47.404;8.566;2022-08-24T08:31:53;96623.22;;;25.29;53.17
39243;BME280;29823;47.404;8.566;2022-08-24T08:34:21;96626.63;;;25.35;53.86
39243;BME280;29823;47.404;8.566;2022-08-24T08:36:49;96632.22;;;26.06;51.80
39243;BME280;29823;47.404;8.566;2022-08-24T08:39:20;96623.38;;;25.75;51.13
39243;BME280;29823;47.404;8.566;2022-08-24T08:44:59;96627.75;;;25.59;53.08
39243;BME280;29823;47.404;8.566;2022-08-24T08:47:57;96620.88;;;26.16;51.35
39243;BME280;29823;47.404;8.566;2022-08-24T08:50:39;96623.63;;;26.62;49.81
39243;BME280;29823;47.404;8.566;2022-08-24T08:53:31;96626.66;;;26.98;48.92
39243;BME280;29823;47.404;8.566;2022-08-24T08:56:15;96621.56;;;27.09;50.92
39243;BME280;29823;47.404;8.566;2022-08-24T08:58:57;96618.63;;;26.93;48.29
39243;BME280;29823;47.404;8.566;2022-08-24T09:01:36;96618.22;;;27.03;48.67
39243;BME280;29823;47.404;8.566;2022-08-24T09:07:19;96616.81;;;26.97;47.56
39243;BME280;29823;47.404;8.566;2022-08-24T09:10:17;96614.38;;;26.67;48.72
39243;BME280;29823;47.404;8.566;2022-08-24T09:15:54;96604.75;;;26.23;49.36
39243;BME280;29823;47.404;8.566;2022-08-24T09:18:35;96606.19;;;26.21;49.06
39243;BME280;29823;47.404;8.566;2022-08-24T09:21:20;96605.84;;;26.68;49.37
39243;BME280;29823;47.404;8.566;2022-08-24T09:24:02;96603.28;;;26.63;48.33
39243;BME280;29823;47.404;8.566;2022-08-24T09:26:38;96609.81;;;27.49;46.57
39243;BME280;29823;47.404;8.566;2022-08-24T09:29:16;96602.81;;;27.72;45.37
39243;BME280;29823;47.404;8.566;2022-08-24T09:31:55;96600.13;;;27.31;47.75
39243;BME280;29823;47.404;8.566;2022-08-24T09:34:34;96611.91;;;27.52;45.52
39243;BME280;29823;47.404;8.566;2022-08-24T09:37:33;96609.31;;;27.88;47.15
39243;BME280;29823;47.404;8.566;2022-08-24T09:40:23;96610.97;;;28.01;44.64
39243;BME280;29823;47.404;8.566;2022-08-24T09:43:31;96601.97;;;28.37;44.02
39243;BME280;29823;47.404;8.566;2022-08-24T09:46:19;96604.97;;;28.56;43.45
39243;BME280;29823;47.404;8.566;2022-08-24T09:49:21;96606.16;;;28.10;43.25
39243;BME280;29823;47.404;8.566;2022-08-24T09:55:14;96606.81;;;28.76;40.26
39243;BME280;29823;47.404;8.566;2022-08-24T09:58:03;96601.53;;;28.83;41.28
39243;BME280;29823;47.404;8.566;2022-08-24T10:00:38;96605.06;;;27.91;43.08
39243;BME280;29823;47.404;8.566;2022-08-24T10:03:20;96600.94;;;27.64;43.09
39243;BME280;29823;47.404;8.566;2022-08-24T10:06:13;96591.56;;;27.65;42.96
39243;BME280;29823;47.404;8.566;2022-08-24T10:11:47;96584.09;;;28.91;40.67
39243;BME280;29823;47.404;8.566;2022-08-24T10:14:34;96587.78;;;29.07;39.91
39243;BME280;29823;47.404;8.566;2022-08-24T10:17:10;96579.16;;;28.84;39.14
39243;BME280;29823;47.404;8.566;2022-08-24T10:19:52;96584.91;;;29.15;38.17
39243;BME280;29823;47.404;8.566;2022-08-24T10:22:51;96582.19;;;29.31;38.61
39243;BME280;29823;47.404;8.566;2022-08-24T10:25:34;96566.34;;;29.00;39.80
39243;BME280;29823;47.404;8.566;2022-08-24T10:28:30;96571.69;;;29.48;36.98
39243;BME280;29823;47.404;8.566;2022-08-24T10:31:02;96566.75;;;28.18;40.26
39243;BME280;29823;47.404;8.566;2022-08-24T10:33:46;96575.63;;;29.47;37.05
39243;BME280;29823;47.404;8.566;2022-08-24T10:36:35;96569.97;;;29.16;38.38
39243;BME280;29823;47.404;8.566;2022-08-24T10:39:23;96566.06;;;30.00;36.65
39243;BME280;29823;47.404;8.566;2022-08-24T10:45:44;96566.91;;;30.31;35.95
39243;BME280;29823;47.404;8.566;2022-08-24T10:48:29;96566.66;;;30.36;35.90
39243;BME280;29823;47.404;8.566;2022-08-24T10:51:12;96575.34;;;29.64;36.10
39243;BME280;29823;47.404;8.566;2022-08-24T10:53:50;96570.59;;;29.92;34.35
39243;BME280;29823;47.404;8.566;2022-08-24T10:56:21;96556.81;;;31.01;34.34
39243;BME280;29823;47.404;8.566;2022-08-24T10:59:01;96570.66;;;30.23;35.65
39243;BME280;29823;47.404;8.566;2022-08-24T11:01:34;96569.47;;;31.36;33.66
39243;BME280;29823;47.404;8.566;2022-08-24T11:04:05;96562.69;;;30.99;34.39
39243;BME280;29823;47.404;8.566;2022-08-24T11:06:36;96557.78;;;30.27;34.84
39243;BME280;29823;47.404;8.566;2022-08-24T11:09:07;96568.78;;;30.89;33.49
39243;BME280;29823;47.404;8.566;2022-08-24T11:11:37;96560.75;;;31.00;32.94
39243;BME280;29823;47.404;8.566;2022-08-24T11:14:08;96565.25;;;31.42;33.17
39243;BME280;29823;47.404;8.566;2022-08-24T11:16:39;96562.91;;;31.44;32.50
39243;BME280;29823;47.404;8.566;2022-08-24T11:19:09;96558.19;;;31.10;32.90
39243;BME280;29823;47.404;8.566;2022-08-24T11:21:45;96539.56;;;31.42;33.11
39243;BME280;29823;47.404;8.566;2022-08-24T11:24:27;96561.38;;;31.66;32.29
39243;BME280;29823;47.404;8.566;2022-08-24T11:26:58;96558.44;;;31.74;32.86
39243;BME280;29823;47.404;8.566;2022-08-24T11:29:59;96551.88;;;32.95;30.70
39243;BME280;29823;47.404;8.566;2022-08-24T11:32:36;96549.69;;;33.07;30.96
39243;BME280;29823;47.404;8.566;2022-08-24T11:35:09;96549.47;;;32.93;29.72
39243;BME280;29823;47.404;8.566;2022-08-24T11:37:41;96547.66;;;33.30;29.94
39243;BME280;29823;47.404;8.566;2022-08-24T11:40:10;96560.56;;;33.78;29.87
39243;BME280;29823;47.404;8.566;2022-08-24T11:42:51;96556.00;;;33.63;30.32
39243;BME280;29823;47.404;8.566;2022-08-24T11:45:28;96541.88;;;34.48;30.17
39243;BME280;29823;47.404;8.566;2022-08-24T11:48:03;96552.97;;;35.60;29.66
39243;BME280;29823;47.404;8.566;2022-08-24T11:50:39;96548.13;;;35.50;29.26
39243;BME280;29823;47.404;8.566;2022-08-24T11:53:15;96546.50;;;34.77;29.75
39243;BME280;29823;47.404;8.566;2022-08-24T11:55:56;96546.25;;;34.96;29.28
39243;BME280;29823;47.404;8.566;2022-08-24T11:58:48;96553.47;;;35.79;28.63
39243;BME280;29823;47.404;8.566;2022-08-24T12:01:25;96542.81;;;34.66;29.99
39243;BME280;29823;47.404;8.566;2022-08-24T12:04:09;96536.69;;;34.07;30.88
39243;BME280;29823;47.404;8.566;2022-08-24T12:06:46;96539.31;;;36.54;27.95
39243;BME280;29823;47.404;8.566;2022-08-24T12:09:36;96537.28;;;36.23;27.56
39243;BME280;29823;47.404;8.566;2022-08-24T12:12:12;96550.91;;;35.50;27.60
39243;BME280;29823;47.404;8.566;2022-08-24T12:14:49;96545.03;;;35.65;27.42
39243;BME280;29823;47.404;8.566;2022-08-24T12:17:34;96546.03;;;36.43;25.81
39243;BME280;29823;47.404;8.566;2022-08-24T12:20:10;96542.47;;;36.21;27.07
39243;BME280;29823;47.404;8.566;2022-08-24T12:22:41;96533.22;;;34.60;26.68
39243;BME280;29823;47.404;8.566;2022-08-24T12:25:11;96539.13;;;35.06;26.28
39243;BME280;29823;47.404;8.566;2022-08-24T12:27:54;96537.84;;;33.69;28.75
39243;BME280;29823;47.404;8.566;2022-08-24T12:30:25;96527.53;;;35.68;27.57
39243;BME280;29823;47.404;8.566;2022-08-24T12:32:56;96528.50;;;34.64;28.49
39243;BME280;29823;47.404;8.566;2022-08-24T12:35:28;96527.34;;;37.10;24.31
39243;BME280;29823;47.404;8.566;2022-08-24T12:38:02;96534.94;;;36.67;24.49
39243;BME280;29823;47.404;8.566;2022-08-24T12:40:38;96520.59;;;36.37;25.52
39243;BME280;29823;47.404;8.566;2022-08-24T12:43:10;96515.03;;;36.79;24.06
39243;BME280;29823;47.404;8.566;2022-08-24T12:45:40;96515.31;;;37.37;24.85
39243;BME280;29823;47.404;8.566;2022-08-24T12:48:13;96504.59;;;36.06;25.20
39243;BME280;29823;47.404;8.566;2022-08-24T12:50:58;96516.88;;;35.77;25.22
39243;BME280;29823;47.404;8.566;2022-08-24T12:53:53;96515.41;;;36.53;24.92
39243;BME280;29823;47.404;8.566;2022-08-24T12:56:54;96504.56;;;37.39;23.76
39243;BME280;29823;47.404;8.566;2022-08-24T12:59:30;96503.88;;;36.55;26.31
39243;BME280;29823;47.404;8.566;2022-08-24T13:02:02;96512.47;;;37.51;24.49
39243;BME280;29823;47.404;8.566;2022-08-24T13:04:36;96506.66;;;36.23;25.77
39243;BME280;29823;47.404;8.566;2022-08-24T13:07:10;96508.66;;;36.93;23.74
39243;BME280;29823;47.404;8.566;2022-08-24T13:09:42;96501.41;;;37.23;23.90
39243;BME280;29823;47.404;8.566;2022-08-24T13:12:45;96497.50;;;36.58;25.24
39243;BME280;29823;47.404;8.566;2022-08-24T13:15:49;96501.31;;;37.55;24.78
39243;BME280;29823;47.404;8.566;2022-08-24T13:21:39;96501.06;;;37.00;25.13
39243;BME280;29823;47.404;8.566;2022-08-24T13:27:46;96498.88;;;37.67;23.24
39243;BME280;29823;47.404;8.566;2022-08-24T13:30:25;96493.91;;;38.03;24.52
39243;BME280;29823;47.404;8.566;2022-08-24T13:33:06;96492.78;;;34.63;26.38
39243;BME280;29823;47.404;8.566;2022-08-24T13:36:02;96495.06;;;37.16;23.88
39243;BME280;29823;47.404;8.566;2022-08-24T13:39:05;96487.16;;;36.62;24.34
39243;BME280;29823;47.404;8.566;2022-08-24T13:41:51;96487.84;;;37.36;23.52
39243;BME280;29823;47.404;8.566;2022-08-24T13:44:46;96489.53;;;36.49;25.36
39243;BME280;29823;47.404;8.566;2022-08-24T13:47:21;96477.16;;;37.13;24.11
39243;BME280;29823;47.404;8.566;2022-08-24T13:50:04;96493.53;;;36.27;24.73
39243;BME280;29823;47.404;8.566;2022-08-24T13:52:45;96485.13;;;37.15;23.98
39243;BME280;29823;47.404;8.566;2022-08-24T13:55:28;96473.28;;;34.56;26.43
39243;BME280;29823;47.404;8.566;2022-08-24T13:58:17;96489.22;;;34.66;27.22